SVR2956 UTDL-USSS
Flight info
| Callsign | SVR2956 |
|---|---|
| Flight time | 2h 37m |
| Altitude | 36000 |
| Route | DILRO T460 LANOL Z578 ARSUL Z632 GENDI M168 ALZIS L145 LANOR N993 BUREM T763 GUPRI R482 PESAM |
| Aircraft | A20N/M-VGDW/C |
Departure
| Time | 2026-05-07 20:00 |
|---|---|
| Airport | Khujand International Airport (UTDL) |
Arrival
| Time | 2026-05-07 22:37 |
|---|---|
| Airport | Koltsovo Airport (USSS) |
| Time | Latitude | Longitude | Altitude | Speed | Heading |
|---|---|---|---|---|---|
| 2026-05-07 19:30 | 40.21928 | 69.70476 | 1402 ft | 0 kts | 258° |
| 2026-05-07 19:55 | 40.21928 | 69.70472 | 1402 ft | 1 kts | 258° |
| 2026-05-07 19:56 | 40.21915 | 69.70439 | 1403 ft | 4 kts | 212° |
| 2026-05-07 19:56 | 40.21888 | 69.70481 | 1404 ft | 11 kts | 84° |
| 2026-05-07 19:56 | 40.21901 | 69.70579 | 1401 ft | 12 kts | 78° |
| 2026-05-07 19:56 | 40.21923 | 69.70709 | 1398 ft | 16 kts | 78° |
| 2026-05-07 19:57 | 40.21945 | 69.70871 | 1397 ft | 18 kts | 80° |
| 2026-05-07 19:57 | 40.21968 | 69.71049 | 1393 ft | 18 kts | 89° |
| 2026-05-07 19:57 | 40.21898 | 69.71165 | 1393 ft | 13 kts | 150° |
| 2026-05-07 19:57 | 40.21864 | 69.71191 | 1395 ft | 4 kts | 150° |
| 2026-05-07 19:58 | 40.21835 | 69.71212 | 1396 ft | 4 kts | 150° |
| 2026-05-07 19:58 | 40.21795 | 69.71242 | 1397 ft | 9 kts | 150° |
| 2026-05-07 19:58 | 40.21726 | 69.71293 | 1398 ft | 8 kts | 155° |
| 2026-05-07 19:58 | 40.21680 | 69.71284 | 1400 ft | 6 kts | 237° |
| 2026-05-07 19:59 | 40.21671 | 69.71237 | 1401 ft | 4 kts | 259° |
| 2026-05-07 19:59 | 40.21662 | 69.71172 | 1402 ft | 21 kts | 260° |
| 2026-05-07 19:59 | 40.21608 | 69.70651 | 1410 ft | 92 kts | 262° |
| 2026-05-07 19:59 | 40.21492 | 69.69562 | 1431 ft | 148 kts | 262° |
| 2026-05-07 20:00 | 40.21345 | 69.68143 | 1819 ft | 160 kts | 262° |
| 2026-05-07 20:00 | 40.21198 | 69.66708 | 2415 ft | 163 kts | 262° |
| 2026-05-07 20:00 | 40.21048 | 69.65238 | 3003 ft | 166 kts | 262° |
| 2026-05-07 20:00 | 40.20895 | 69.63714 | 3434 ft | 177 kts | 262° |
| 2026-05-07 20:01 | 40.20726 | 69.62035 | 3777 ft | 194 kts | 262° |
| 2026-05-07 20:01 | 40.20542 | 69.60214 | 4145 ft | 211 kts | 262° |
| 2026-05-07 20:01 | 40.20340 | 69.58240 | 4499 ft | 228 kts | 262° |
| 2026-05-07 20:01 | 40.20119 | 69.56093 | 4781 ft | 251 kts | 263° |
| 2026-05-07 20:02 | 40.19878 | 69.53769 | 5174 ft | 269 kts | 263° |
| 2026-05-07 20:02 | 40.19620 | 69.51271 | 5706 ft | 282 kts | 263° |
| 2026-05-07 20:02 | 40.19465 | 69.48743 | 6449 ft | 285 kts | 277° |
| 2026-05-07 20:02 | 40.20123 | 69.46343 | 7196 ft | 285 kts | 306° |
| 2026-05-07 20:03 | 40.21551 | 69.44604 | 7939 ft | 284 kts | 327° |
| 2026-05-07 20:03 | 40.23214 | 69.43199 | 8693 ft | 287 kts | 327° |
| 2026-05-07 20:03 | 40.24871 | 69.41782 | 9372 ft | 289 kts | 327° |
| 2026-05-07 20:03 | 40.26561 | 69.40315 | 9787 ft | 290 kts | 326° |
| 2026-05-07 20:04 | 40.28241 | 69.38844 | 9994 ft | 290 kts | 326° |
| 2026-05-07 20:04 | 40.29916 | 69.37367 | 10022 ft | 290 kts | 326° |
| 2026-05-07 20:04 | 40.31567 | 69.35906 | 10038 ft | 290 kts | 326° |
| 2026-05-07 20:04 | 40.33250 | 69.34416 | 9998 ft | 290 kts | 326° |
| 2026-05-07 20:05 | 40.35022 | 69.33098 | 10100 ft | 296 kts | 337° |
| 2026-05-07 20:05 | 40.36998 | 69.32144 | 10480 ft | 311 kts | 341° |
| 2026-05-07 20:05 | 40.39080 | 69.31216 | 10870 ft | 327 kts | 340° |
| 2026-05-07 20:05 | 40.41260 | 69.30227 | 11506 ft | 334 kts | 340° |
| 2026-05-07 20:06 | 40.43431 | 69.29215 | 12258 ft | 336 kts | 339° |
| 2026-05-07 20:06 | 40.45632 | 69.28171 | 13033 ft | 339 kts | 339° |
| 2026-05-07 20:06 | 40.47855 | 69.27102 | 13777 ft | 342 kts | 339° |
| 2026-05-07 20:06 | 40.50097 | 69.26017 | 14505 ft | 346 kts | 339° |
| 2026-05-07 20:07 | 40.52361 | 69.24916 | 15205 ft | 349 kts | 338° |
| 2026-05-07 20:07 | 40.54645 | 69.23802 | 15895 ft | 353 kts | 338° |
| 2026-05-07 20:07 | 40.56955 | 69.22673 | 16581 ft | 356 kts | 338° |
| 2026-05-07 20:07 | 40.59266 | 69.21541 | 17245 ft | 360 kts | 338° |
| 2026-05-07 20:08 | 40.61622 | 69.20386 | 17920 ft | 363 kts | 338° |
| 2026-05-07 20:08 | 40.63995 | 69.19222 | 18556 ft | 367 kts | 338° |
| 2026-05-07 20:08 | 40.66388 | 69.18044 | 19197 ft | 370 kts | 338° |
| 2026-05-07 20:08 | 40.68774 | 69.16872 | 19822 ft | 373 kts | 338° |
| 2026-05-07 20:09 | 40.71210 | 69.15674 | 20436 ft | 376 kts | 338° |
| 2026-05-07 20:09 | 40.73694 | 69.14450 | 21057 ft | 379 kts | 338° |
| 2026-05-07 20:09 | 40.76167 | 69.13230 | 21658 ft | 382 kts | 338° |
| 2026-05-07 20:10 | 40.81152 | 69.10773 | 22811 ft | 388 kts | 338° |
| 2026-05-07 20:10 | 40.83689 | 69.09519 | 23360 ft | 391 kts | 338° |
| 2026-05-07 20:10 | 40.86249 | 69.08254 | 23886 ft | 394 kts | 338° |
| 2026-05-07 20:10 | 40.88825 | 69.06980 | 24398 ft | 397 kts | 338° |
| 2026-05-07 20:11 | 40.91392 | 69.05708 | 24883 ft | 400 kts | 338° |
| 2026-05-07 20:11 | 40.94015 | 69.04409 | 25355 ft | 403 kts | 338° |
| 2026-05-07 20:11 | 40.96650 | 69.03101 | 25815 ft | 406 kts | 338° |
| 2026-05-07 20:11 | 40.99296 | 69.01787 | 26262 ft | 408 kts | 338° |
| 2026-05-07 20:12 | 41.01941 | 69.00472 | 26690 ft | 411 kts | 338° |
| 2026-05-07 20:12 | 41.04646 | 68.99128 | 27117 ft | 413 kts | 337° |
| 2026-05-07 20:12 | 41.07325 | 68.97794 | 27541 ft | 415 kts | 337° |
| 2026-05-07 20:12 | 41.10027 | 68.96448 | 27944 ft | 417 kts | 337° |
| 2026-05-07 20:13 | 41.12757 | 68.95085 | 28340 ft | 419 kts | 337° |
| 2026-05-07 20:13 | 41.15493 | 68.93720 | 28726 ft | 422 kts | 337° |
| 2026-05-07 20:13 | 41.18227 | 68.92342 | 29086 ft | 424 kts | 336° |
| 2026-05-07 20:13 | 41.20941 | 68.90807 | 29446 ft | 425 kts | 333° |
| 2026-05-07 20:14 | 41.23627 | 68.89167 | 29890 ft | 425 kts | 332° |
| 2026-05-07 20:14 | 41.26297 | 68.87510 | 30416 ft | 422 kts | 332° |
| 2026-05-07 20:14 | 41.28922 | 68.85875 | 30919 ft | 421 kts | 332° |
| 2026-05-07 20:14 | 41.31596 | 68.84264 | 31385 ft | 420 kts | 335° |
| 2026-05-07 20:15 | 41.34337 | 68.82917 | 31821 ft | 421 kts | 341° |
| 2026-05-07 20:15 | 41.37201 | 68.82091 | 32227 ft | 423 kts | 349° |
| 2026-05-07 20:15 | 41.40092 | 68.81575 | 32637 ft | 423 kts | 350° |
| 2026-05-07 20:15 | 41.43019 | 68.81103 | 33024 ft | 422 kts | 350° |
| 2026-05-07 20:16 | 41.45902 | 68.80642 | 33391 ft | 422 kts | 350° |
| 2026-05-07 20:16 | 41.48812 | 68.80172 | 33762 ft | 421 kts | 350° |
| 2026-05-07 20:16 | 41.51723 | 68.79694 | 34127 ft | 420 kts | 350° |
| 2026-05-07 20:16 | 41.54622 | 68.79216 | 34401 ft | 419 kts | 349° |
| 2026-05-07 20:17 | 41.57510 | 68.78738 | 34628 ft | 420 kts | 349° |
| 2026-05-07 20:17 | 41.60417 | 68.78252 | 34824 ft | 421 kts | 349° |
| 2026-05-07 20:17 | 41.63296 | 68.77769 | 35014 ft | 422 kts | 349° |
| 2026-05-07 20:17 | 41.66218 | 68.77279 | 35210 ft | 423 kts | 349° |
| 2026-05-07 20:18 | 41.69139 | 68.76788 | 35403 ft | 423 kts | 349° |
| 2026-05-07 20:18 | 41.72031 | 68.76301 | 35566 ft | 425 kts | 349° |
| 2026-05-07 20:18 | 41.74996 | 68.75803 | 35731 ft | 426 kts | 349° |
| 2026-05-07 20:18 | 41.77935 | 68.75307 | 35884 ft | 427 kts | 349° |
| 2026-05-07 20:19 | 41.80880 | 68.74810 | 35963 ft | 429 kts | 349° |
| 2026-05-07 20:19 | 41.86802 | 68.73810 | 35969 ft | 430 kts | 349° |
| 2026-05-07 20:20 | 41.92701 | 68.72813 | 35973 ft | 430 kts | 349° |
| 2026-05-07 20:20 | 41.98619 | 68.71809 | 35972 ft | 430 kts | 349° |
| 2026-05-07 20:21 | 42.04563 | 68.70797 | 35973 ft | 429 kts | 349° |
| 2026-05-07 20:21 | 42.10457 | 68.69796 | 35966 ft | 430 kts | 349° |
| 2026-05-07 20:22 | 42.16404 | 68.68781 | 35962 ft | 430 kts | 349° |
| 2026-05-07 20:22 | 42.22331 | 68.67768 | 35951 ft | 430 kts | 349° |
| 2026-05-07 20:23 | 42.28268 | 68.66752 | 35947 ft | 430 kts | 349° |
| 2026-05-07 20:23 | 42.34218 | 68.65730 | 35939 ft | 430 kts | 349° |
| 2026-05-07 20:24 | 42.40149 | 68.64709 | 35939 ft | 431 kts | 349° |
| 2026-05-07 20:24 | 42.46068 | 68.63693 | 35932 ft | 431 kts | 349° |
| 2026-05-07 20:25 | 42.52025 | 68.62667 | 35932 ft | 431 kts | 348° |
| 2026-05-07 20:25 | 42.57963 | 68.61639 | 35927 ft | 431 kts | 348° |
| 2026-05-07 20:26 | 42.63891 | 68.60613 | 35930 ft | 431 kts | 348° |
| 2026-05-07 20:26 | 42.69857 | 68.59577 | 35926 ft | 431 kts | 348° |
| 2026-05-07 20:27 | 42.75783 | 68.58548 | 35927 ft | 432 kts | 348° |
| 2026-05-07 20:27 | 42.81726 | 68.57513 | 35931 ft | 432 kts | 348° |
| 2026-05-07 20:28 | 42.87695 | 68.56471 | 35926 ft | 432 kts | 348° |
| 2026-05-07 20:28 | 42.93634 | 68.55434 | 35923 ft | 432 kts | 348° |
| 2026-05-07 20:29 | 42.99611 | 68.54387 | 35923 ft | 433 kts | 348° |
| 2026-05-07 20:29 | 43.05574 | 68.53339 | 35927 ft | 433 kts | 348° |
| 2026-05-07 20:30 | 43.11544 | 68.52289 | 35930 ft | 433 kts | 348° |
| 2026-05-07 20:30 | 43.17518 | 68.51235 | 35930 ft | 434 kts | 348° |
| 2026-05-07 20:31 | 43.23492 | 68.50182 | 35930 ft | 434 kts | 348° |
| 2026-05-07 20:31 | 43.29448 | 68.49129 | 35934 ft | 434 kts | 348° |
| 2026-05-07 20:32 | 43.35437 | 68.48067 | 35935 ft | 434 kts | 348° |
| 2026-05-07 20:32 | 43.41418 | 68.47003 | 35942 ft | 434 kts | 348° |
| 2026-05-07 20:33 | 43.47401 | 68.45939 | 35951 ft | 435 kts | 348° |
| 2026-05-07 20:33 | 43.53405 | 68.44870 | 35964 ft | 435 kts | 348° |
| 2026-05-07 20:34 | 43.59365 | 68.43805 | 35988 ft | 435 kts | 348° |
| 2026-05-07 20:34 | 43.65379 | 68.42727 | 36027 ft | 435 kts | 348° |
| 2026-05-07 20:35 | 43.71363 | 68.41653 | 36061 ft | 435 kts | 348° |
| 2026-05-07 20:35 | 43.77340 | 68.40579 | 36090 ft | 435 kts | 348° |
| 2026-05-07 20:36 | 43.83313 | 68.39503 | 36083 ft | 435 kts | 348° |
| 2026-05-07 20:36 | 43.89320 | 68.38421 | 36077 ft | 435 kts | 347° |
| 2026-05-07 20:37 | 43.95331 | 68.37331 | 36065 ft | 436 kts | 347° |
| 2026-05-07 20:37 | 44.01329 | 68.36244 | 36054 ft | 437 kts | 347° |
| 2026-05-07 20:38 | 44.07361 | 68.35149 | 36037 ft | 437 kts | 347° |
| 2026-05-07 20:38 | 44.13379 | 68.34054 | 36026 ft | 437 kts | 347° |
| 2026-05-07 20:39 | 44.19383 | 68.32960 | 36005 ft | 437 kts | 347° |
| 2026-05-07 20:39 | 44.25393 | 68.31862 | 35985 ft | 438 kts | 347° |
| 2026-05-07 20:40 | 44.31453 | 68.30753 | 35966 ft | 439 kts | 347° |
| 2026-05-07 20:40 | 44.37478 | 68.29646 | 35960 ft | 439 kts | 347° |
| 2026-05-07 20:41 | 44.43504 | 68.28537 | 35954 ft | 439 kts | 347° |
| 2026-05-07 20:41 | 44.49549 | 68.27424 | 35947 ft | 440 kts | 347° |
| 2026-05-07 20:42 | 44.55654 | 68.26296 | 35943 ft | 442 kts | 347° |
| 2026-05-07 20:42 | 44.61737 | 68.25172 | 35941 ft | 442 kts | 347° |
| 2026-05-07 20:43 | 44.67798 | 68.24049 | 35938 ft | 442 kts | 346° |
| 2026-05-07 20:43 | 44.73890 | 68.22915 | 35940 ft | 443 kts | 346° |
| 2026-05-07 20:44 | 44.80000 | 68.21779 | 35932 ft | 444 kts | 346° |
| 2026-05-07 20:44 | 44.86087 | 68.20644 | 35929 ft | 444 kts | 346° |
| 2026-05-07 20:45 | 44.92249 | 68.19492 | 35928 ft | 446 kts | 346° |
| 2026-05-07 20:45 | 44.98358 | 68.18343 | 35923 ft | 446 kts | 346° |
| 2026-05-07 20:46 | 45.04508 | 68.17188 | 35917 ft | 447 kts | 346° |
| 2026-05-07 20:46 | 45.10690 | 68.16026 | 35912 ft | 448 kts | 346° |
| 2026-05-07 20:47 | 45.16814 | 68.14871 | 35917 ft | 446 kts | 346° |
| 2026-05-07 20:47 | 45.22960 | 68.13710 | 35915 ft | 447 kts | 346° |
| 2026-05-07 20:48 | 45.29139 | 68.12540 | 35920 ft | 447 kts | 346° |
| 2026-05-07 20:48 | 45.35268 | 68.11375 | 35923 ft | 448 kts | 346° |
| 2026-05-07 20:49 | 45.41455 | 68.10197 | 35922 ft | 449 kts | 346° |
| 2026-05-07 20:49 | 45.47662 | 68.09016 | 35921 ft | 450 kts | 346° |
| 2026-05-07 20:50 | 45.53833 | 68.07833 | 35920 ft | 452 kts | 346° |
| 2026-05-07 20:50 | 45.60076 | 68.06639 | 35918 ft | 452 kts | 346° |
| 2026-05-07 20:51 | 45.66275 | 68.05450 | 35920 ft | 452 kts | 346° |
| 2026-05-07 20:51 | 45.72509 | 68.04249 | 35927 ft | 453 kts | 346° |
| 2026-05-07 20:52 | 45.78761 | 68.03043 | 35923 ft | 453 kts | 346° |
| 2026-05-07 20:52 | 45.84953 | 68.01847 | 35926 ft | 453 kts | 346° |
| 2026-05-07 20:53 | 45.91204 | 68.00633 | 35922 ft | 455 kts | 346° |
| 2026-05-07 20:53 | 45.97476 | 67.99429 | 35923 ft | 457 kts | 347° |
| 2026-05-07 20:54 | 46.03811 | 67.98481 | 35927 ft | 458 kts | 348° |
| 2026-05-07 20:54 | 46.10149 | 67.97588 | 35925 ft | 459 kts | 348° |
| 2026-05-07 20:55 | 46.16478 | 67.96674 | 35919 ft | 458 kts | 348° |
| 2026-05-07 20:55 | 46.22821 | 67.95744 | 35920 ft | 458 kts | 348° |
| 2026-05-07 20:56 | 46.29126 | 67.94817 | 35916 ft | 458 kts | 348° |
| 2026-05-07 20:56 | 46.35478 | 67.93877 | 35920 ft | 457 kts | 348° |
| 2026-05-07 20:57 | 46.41798 | 67.92941 | 35917 ft | 457 kts | 348° |
| 2026-05-07 20:57 | 46.48114 | 67.92003 | 35918 ft | 458 kts | 347° |
| 2026-05-07 20:58 | 46.54456 | 67.91061 | 35922 ft | 458 kts | 348° |
| 2026-05-07 20:58 | 46.60794 | 67.90376 | 35918 ft | 460 kts | 350° |
| 2026-05-07 20:59 | 46.67194 | 67.89769 | 35915 ft | 461 kts | 350° |
| 2026-05-07 20:59 | 46.73567 | 67.89147 | 35914 ft | 461 kts | 349° |
| 2026-05-07 21:00 | 46.79929 | 67.88508 | 35915 ft | 461 kts | 350° |
| 2026-05-07 21:00 | 46.86330 | 67.87861 | 35918 ft | 462 kts | 350° |
| 2026-05-07 21:01 | 46.92709 | 67.87217 | 35924 ft | 460 kts | 350° |
| 2026-05-07 21:01 | 46.99105 | 67.86566 | 35926 ft | 461 kts | 350° |
| 2026-05-07 21:02 | 47.05481 | 67.85771 | 35927 ft | 458 kts | 348° |
| 2026-05-07 21:02 | 47.11811 | 67.84847 | 35927 ft | 459 kts | 348° |
| 2026-05-07 21:03 | 47.18140 | 67.83930 | 35928 ft | 459 kts | 348° |
| 2026-05-07 21:03 | 47.24494 | 67.83018 | 35934 ft | 459 kts | 348° |
| 2026-05-07 21:04 | 47.30841 | 67.82113 | 35933 ft | 459 kts | 347° |
| 2026-05-07 21:04 | 47.37190 | 67.81202 | 35934 ft | 460 kts | 348° |
| 2026-05-07 21:05 | 47.43533 | 67.80296 | 35933 ft | 458 kts | 348° |
| 2026-05-07 21:05 | 47.49875 | 67.79382 | 35931 ft | 458 kts | 348° |
| 2026-05-07 21:06 | 47.56194 | 67.78473 | 35933 ft | 457 kts | 348° |
| 2026-05-07 21:06 | 47.62491 | 67.77564 | 35933 ft | 458 kts | 347° |
| 2026-05-07 21:07 | 47.68758 | 67.76288 | 35938 ft | 453 kts | 341° |
| 2026-05-07 21:07 | 47.74796 | 67.73925 | 35936 ft | 444 kts | 334° |
| 2026-05-07 21:08 | 47.80472 | 67.70552 | 35942 ft | 438 kts | 328° |
| 2026-05-07 21:08 | 47.85964 | 67.66775 | 35942 ft | 438 kts | 328° |
| 2026-05-07 21:09 | 47.91490 | 67.62959 | 35934 ft | 439 kts | 328° |
| 2026-05-07 21:09 | 47.96989 | 67.59174 | 35944 ft | 439 kts | 328° |
| 2026-05-07 21:10 | 48.02552 | 67.55339 | 35933 ft | 439 kts | 328° |
| 2026-05-07 21:10 | 48.08065 | 67.51533 | 35945 ft | 440 kts | 328° |
| 2026-05-07 21:11 | 48.13589 | 67.47709 | 35941 ft | 439 kts | 328° |
| 2026-05-07 21:11 | 48.21921 | 67.41970 | 35931 ft | 439 kts | 328° |
| 2026-05-07 21:12 | 48.27472 | 67.38139 | 35938 ft | 440 kts | 328° |
| 2026-05-07 21:12 | 48.33059 | 67.34261 | 35941 ft | 451 kts | 328° |
| 2026-05-07 21:13 | 48.38790 | 67.30278 | 35944 ft | 460 kts | 328° |
| 2026-05-07 21:13 | 48.44627 | 67.26211 | 35943 ft | 466 kts | 328° |
| 2026-05-07 21:14 | 48.50491 | 67.22121 | 35946 ft | 466 kts | 328° |
| 2026-05-07 21:14 | 48.56369 | 67.18014 | 35946 ft | 465 kts | 329° |
| 2026-05-07 21:15 | 48.62221 | 67.13904 | 35954 ft | 466 kts | 329° |
| 2026-05-07 21:15 | 48.68074 | 67.09787 | 35940 ft | 467 kts | 329° |
| 2026-05-07 21:16 | 48.73934 | 67.05654 | 35947 ft | 465 kts | 329° |
| 2026-05-07 21:16 | 48.79781 | 67.01517 | 35946 ft | 465 kts | 329° |
| 2026-05-07 21:17 | 48.85633 | 66.97366 | 35937 ft | 466 kts | 329° |
| 2026-05-07 21:17 | 48.91497 | 66.93198 | 35938 ft | 466 kts | 329° |
| 2026-05-07 21:18 | 48.97342 | 66.89034 | 35934 ft | 466 kts | 329° |
| 2026-05-07 21:18 | 49.03215 | 66.84836 | 35926 ft | 465 kts | 329° |
| 2026-05-07 21:19 | 49.09031 | 66.80671 | 35931 ft | 465 kts | 329° |
| 2026-05-07 21:19 | 49.14891 | 66.76459 | 35929 ft | 466 kts | 329° |
| 2026-05-07 21:20 | 49.20716 | 66.72263 | 35919 ft | 467 kts | 329° |
| 2026-05-07 21:20 | 49.26590 | 66.68020 | 35911 ft | 466 kts | 329° |
| 2026-05-07 21:21 | 49.32456 | 66.63773 | 35919 ft | 468 kts | 330° |
| 2026-05-07 21:21 | 49.38321 | 66.59512 | 35914 ft | 467 kts | 330° |
| 2026-05-07 21:22 | 49.44177 | 66.55250 | 35911 ft | 467 kts | 330° |
| 2026-05-07 21:22 | 49.50016 | 66.50991 | 35932 ft | 468 kts | 330° |
| 2026-05-07 21:23 | 49.55887 | 66.46690 | 35916 ft | 468 kts | 330° |
| 2026-05-07 21:23 | 49.61716 | 66.42416 | 35902 ft | 468 kts | 330° |
| 2026-05-07 21:24 | 49.67576 | 66.38097 | 35908 ft | 468 kts | 330° |
| 2026-05-07 21:24 | 49.73455 | 66.33763 | 35900 ft | 469 kts | 330° |
| 2026-05-07 21:25 | 49.79298 | 66.29441 | 35894 ft | 468 kts | 330° |
| 2026-05-07 21:25 | 49.85133 | 66.25112 | 35892 ft | 468 kts | 330° |
| 2026-05-07 21:26 | 49.91011 | 66.20738 | 35889 ft | 469 kts | 330° |
| 2026-05-07 21:26 | 49.96853 | 66.16385 | 35886 ft | 467 kts | 330° |
| 2026-05-07 21:27 | 50.02718 | 66.12000 | 35888 ft | 467 kts | 330° |
| 2026-05-07 21:27 | 50.08561 | 66.07622 | 35883 ft | 468 kts | 330° |
| 2026-05-07 21:28 | 50.14383 | 66.03243 | 35883 ft | 469 kts | 330° |
| 2026-05-07 21:28 | 50.20241 | 65.98824 | 35894 ft | 470 kts | 331° |
| 2026-05-07 21:29 | 50.26111 | 65.94389 | 35893 ft | 470 kts | 331° |
| 2026-05-07 21:29 | 50.31978 | 65.89941 | 35899 ft | 469 kts | 330° |
| 2026-05-07 21:30 | 50.37869 | 65.85465 | 35890 ft | 470 kts | 331° |
| 2026-05-07 21:30 | 50.43720 | 65.81007 | 35891 ft | 472 kts | 330° |
| 2026-05-07 21:31 | 50.49622 | 65.76495 | 35898 ft | 472 kts | 330° |
| 2026-05-07 21:31 | 50.55488 | 65.71995 | 35903 ft | 473 kts | 330° |
| 2026-05-07 21:32 | 50.61412 | 65.67442 | 35909 ft | 474 kts | 330° |
| 2026-05-07 21:32 | 50.67285 | 65.62913 | 35913 ft | 474 kts | 330° |
| 2026-05-07 21:33 | 50.73208 | 65.58334 | 35903 ft | 473 kts | 330° |
| 2026-05-07 21:33 | 50.79090 | 65.53775 | 35908 ft | 475 kts | 331° |
| 2026-05-07 21:34 | 50.85003 | 65.49176 | 35902 ft | 476 kts | 331° |
| 2026-05-07 21:34 | 50.90930 | 65.44557 | 35909 ft | 477 kts | 331° |
| 2026-05-07 21:35 | 50.96864 | 65.39916 | 35908 ft | 478 kts | 331° |
| 2026-05-07 21:35 | 51.02810 | 65.35256 | 35914 ft | 479 kts | 331° |
| 2026-05-07 21:36 | 51.08789 | 65.30554 | 35912 ft | 479 kts | 330° |
| 2026-05-07 21:36 | 51.14736 | 65.25867 | 35912 ft | 479 kts | 330° |
| 2026-05-07 21:37 | 51.20653 | 65.21185 | 35905 ft | 478 kts | 330° |
| 2026-05-07 21:37 | 51.26615 | 65.16458 | 35905 ft | 479 kts | 330° |
| 2026-05-07 21:38 | 51.32568 | 65.11721 | 35898 ft | 480 kts | 330° |
| 2026-05-07 21:38 | 51.38503 | 65.06985 | 35884 ft | 481 kts | 330° |
| 2026-05-07 21:39 | 51.44477 | 65.02206 | 35894 ft | 481 kts | 330° |
| 2026-05-07 21:39 | 51.50449 | 64.97415 | 35900 ft | 481 kts | 330° |
| 2026-05-07 21:40 | 51.56412 | 64.92614 | 35890 ft | 481 kts | 330° |
| 2026-05-07 21:40 | 51.62384 | 64.87791 | 35896 ft | 482 kts | 330° |
| 2026-05-07 21:41 | 51.68336 | 64.82976 | 35891 ft | 481 kts | 330° |
| 2026-05-07 21:41 | 51.74285 | 64.78145 | 35890 ft | 482 kts | 330° |
| 2026-05-07 21:42 | 51.80286 | 64.73254 | 35887 ft | 482 kts | 330° |
| 2026-05-07 21:42 | 51.86237 | 64.68396 | 35883 ft | 482 kts | 330° |
| 2026-05-07 21:43 | 51.92175 | 64.63529 | 35898 ft | 481 kts | 330° |
| 2026-05-07 21:43 | 51.98127 | 64.58635 | 35890 ft | 482 kts | 330° |
| 2026-05-07 21:44 | 52.04100 | 64.53712 | 35887 ft | 483 kts | 330° |
| 2026-05-07 21:44 | 52.10073 | 64.48773 | 35882 ft | 484 kts | 330° |
| 2026-05-07 21:45 | 52.16056 | 64.43813 | 35882 ft | 483 kts | 330° |
| 2026-05-07 21:45 | 52.22046 | 64.38831 | 35881 ft | 485 kts | 330° |
| 2026-05-07 21:46 | 52.27991 | 64.33874 | 35884 ft | 484 kts | 329° |
| 2026-05-07 21:46 | 52.33962 | 64.28876 | 35883 ft | 484 kts | 329° |
| 2026-05-07 21:47 | 52.39954 | 64.23839 | 35884 ft | 484 kts | 329° |
| 2026-05-07 21:47 | 52.45935 | 64.18807 | 35886 ft | 484 kts | 329° |
| 2026-05-07 21:48 | 52.51873 | 64.13796 | 35888 ft | 484 kts | 329° |
| 2026-05-07 21:48 | 52.57840 | 64.08735 | 35894 ft | 485 kts | 329° |
| 2026-05-07 21:49 | 52.63802 | 64.03674 | 35898 ft | 484 kts | 329° |
| 2026-05-07 21:49 | 52.69814 | 63.98547 | 35900 ft | 484 kts | 329° |
| 2026-05-07 21:50 | 52.75748 | 63.93469 | 35903 ft | 485 kts | 329° |
| 2026-05-07 21:50 | 52.81722 | 63.88348 | 35908 ft | 486 kts | 329° |
| 2026-05-07 21:51 | 52.87724 | 63.83183 | 35905 ft | 487 kts | 329° |
| 2026-05-07 21:51 | 52.93687 | 63.78037 | 35900 ft | 487 kts | 329° |
| 2026-05-07 21:52 | 52.99670 | 63.72856 | 35911 ft | 486 kts | 329° |
| 2026-05-07 21:52 | 53.05640 | 63.67673 | 35907 ft | 486 kts | 329° |
| 2026-05-07 21:53 | 53.11654 | 63.62437 | 35914 ft | 486 kts | 329° |
| 2026-05-07 21:53 | 53.17590 | 63.57244 | 35898 ft | 485 kts | 329° |
| 2026-05-07 21:54 | 53.23452 | 63.51851 | 35892 ft | 482 kts | 326° |
| 2026-05-07 21:54 | 53.29237 | 63.46266 | 35891 ft | 483 kts | 326° |
| 2026-05-07 21:55 | 53.35038 | 63.40670 | 35890 ft | 482 kts | 326° |
| 2026-05-07 21:55 | 53.40818 | 63.35101 | 35900 ft | 481 kts | 327° |
| 2026-05-07 21:56 | 53.46598 | 63.29521 | 35897 ft | 480 kts | 326° |
| 2026-05-07 21:56 | 53.52352 | 63.23957 | 35877 ft | 480 kts | 326° |
| 2026-05-07 21:57 | 53.58123 | 63.18348 | 35895 ft | 478 kts | 326° |
| 2026-05-07 21:57 | 53.63866 | 63.12752 | 35875 ft | 479 kts | 326° |
| 2026-05-07 21:58 | 53.69589 | 63.07164 | 35889 ft | 477 kts | 326° |
| 2026-05-07 21:58 | 53.75299 | 63.01571 | 35883 ft | 477 kts | 326° |
| 2026-05-07 21:59 | 53.81041 | 62.95921 | 35891 ft | 477 kts | 326° |
| 2026-05-07 21:59 | 53.86723 | 62.90314 | 35895 ft | 477 kts | 326° |
| 2026-05-07 22:00 | 53.92425 | 62.84675 | 35887 ft | 465 kts | 326° |
| 2026-05-07 22:00 | 53.95169 | 62.81961 | 35898 ft | 451 kts | 325° |
| 2026-05-07 22:00 | 53.97840 | 62.79311 | 35900 ft | 448 kts | 326° |
| 2026-05-07 22:01 | 54.03189 | 62.73970 | 35891 ft | 447 kts | 326° |
| 2026-05-07 22:01 | 54.08540 | 62.68626 | 35889 ft | 446 kts | 326° |
| 2026-05-07 22:02 | 54.13885 | 62.63405 | 35891 ft | 444 kts | 327° |
| 2026-05-07 22:02 | 54.19275 | 62.58215 | 35893 ft | 444 kts | 327° |
| 2026-05-07 22:03 | 54.24627 | 62.53034 | 35893 ft | 443 kts | 327° |
| 2026-05-07 22:03 | 54.29955 | 62.47858 | 35895 ft | 442 kts | 327° |
| 2026-05-07 22:04 | 54.35273 | 62.42668 | 35891 ft | 441 kts | 327° |
| 2026-05-07 22:04 | 54.40551 | 62.37505 | 35893 ft | 440 kts | 327° |
| 2026-05-07 22:05 | 54.45865 | 62.32289 | 35899 ft | 439 kts | 326° |
| 2026-05-07 22:05 | 54.51146 | 62.27089 | 35898 ft | 439 kts | 326° |
| 2026-05-07 22:06 | 54.56408 | 62.21894 | 35896 ft | 438 kts | 326° |
| 2026-05-07 22:06 | 54.61668 | 62.16687 | 35894 ft | 437 kts | 326° |
| 2026-05-07 22:07 | 54.66915 | 62.11478 | 35900 ft | 438 kts | 327° |
| 2026-05-07 22:07 | 54.72245 | 62.06526 | 35903 ft | 437 kts | 328° |
| 2026-05-07 22:08 | 54.77601 | 62.01625 | 35900 ft | 436 kts | 328° |
| 2026-05-07 22:08 | 54.82946 | 61.96688 | 35901 ft | 436 kts | 328° |
| 2026-05-07 22:09 | 54.88276 | 61.91738 | 35899 ft | 436 kts | 328° |
| 2026-05-07 22:09 | 54.93601 | 61.86774 | 35903 ft | 435 kts | 328° |
| 2026-05-07 22:10 | 54.98884 | 61.81831 | 35907 ft | 435 kts | 328° |
| 2026-05-07 22:10 | 55.04210 | 61.76838 | 35911 ft | 435 kts | 328° |
| 2026-05-07 22:11 | 55.09512 | 61.71847 | 35901 ft | 433 kts | 328° |
| 2026-05-07 22:11 | 55.14803 | 61.66856 | 35899 ft | 433 kts | 328° |
| 2026-05-07 22:12 | 55.20057 | 61.61881 | 35785 ft | 434 kts | 328° |
| 2026-05-07 22:12 | 55.22699 | 61.59373 | 35413 ft | 432 kts | 328° |
| 2026-05-07 22:12 | 55.25359 | 61.56904 | 34896 ft | 434 kts | 329° |
| 2026-05-07 22:13 | 55.28080 | 61.54682 | 34256 ft | 438 kts | 333° |
| 2026-05-07 22:13 | 55.30908 | 61.52725 | 33559 ft | 441 kts | 337° |
| 2026-05-07 22:13 | 55.33842 | 61.51059 | 32898 ft | 442 kts | 341° |
| 2026-05-07 22:13 | 55.36780 | 61.49740 | 32243 ft | 443 kts | 345° |
| 2026-05-07 22:14 | 55.39801 | 61.48668 | 31599 ft | 443 kts | 347° |
| 2026-05-07 22:14 | 55.42804 | 61.47690 | 30964 ft | 442 kts | 348° |
| 2026-05-07 22:14 | 55.45808 | 61.46727 | 30298 ft | 442 kts | 348° |
| 2026-05-07 22:14 | 55.48822 | 61.45756 | 29589 ft | 441 kts | 348° |
| 2026-05-07 22:15 | 55.51810 | 61.44788 | 29019 ft | 438 kts | 348° |
| 2026-05-07 22:15 | 55.54782 | 61.43820 | 28391 ft | 436 kts | 348° |
| 2026-05-07 22:15 | 55.57747 | 61.42847 | 27723 ft | 434 kts | 349° |
| 2026-05-07 22:15 | 55.60696 | 61.41877 | 27054 ft | 433 kts | 349° |
| 2026-05-07 22:16 | 55.63640 | 61.40907 | 26377 ft | 431 kts | 349° |
| 2026-05-07 22:16 | 55.66560 | 61.39940 | 25708 ft | 430 kts | 349° |
| 2026-05-07 22:16 | 55.69475 | 61.38973 | 25031 ft | 428 kts | 349° |
| 2026-05-07 22:16 | 55.72401 | 61.37999 | 24367 ft | 423 kts | 349° |
| 2026-05-07 22:17 | 55.75195 | 61.37072 | 23827 ft | 406 kts | 349° |
| 2026-05-07 22:17 | 55.77919 | 61.36169 | 23348 ft | 398 kts | 349° |
| 2026-05-07 22:17 | 55.80641 | 61.35262 | 22886 ft | 395 kts | 349° |
| 2026-05-07 22:17 | 55.83326 | 61.34364 | 22432 ft | 392 kts | 349° |
| 2026-05-07 22:18 | 55.85980 | 61.33478 | 21991 ft | 389 kts | 349° |
| 2026-05-07 22:18 | 55.91187 | 61.31439 | 21095 ft | 383 kts | 343° |
| 2026-05-07 22:18 | 55.93730 | 61.30011 | 20564 ft | 382 kts | 341° |
| 2026-05-07 22:19 | 55.96230 | 61.28466 | 20091 ft | 379 kts | 340° |
| 2026-05-07 22:19 | 55.98672 | 61.26930 | 19635 ft | 375 kts | 340° |
| 2026-05-07 22:19 | 56.01104 | 61.25398 | 19185 ft | 372 kts | 340° |
| 2026-05-07 22:19 | 56.03556 | 61.23857 | 18732 ft | 369 kts | 340° |
| 2026-05-07 22:20 | 56.05956 | 61.22348 | 18272 ft | 366 kts | 340° |
| 2026-05-07 22:20 | 56.08314 | 61.20864 | 17828 ft | 363 kts | 340° |
| 2026-05-07 22:20 | 56.10690 | 61.19371 | 17386 ft | 360 kts | 340° |
| 2026-05-07 22:20 | 56.13047 | 61.17888 | 16915 ft | 358 kts | 340° |
| 2026-05-07 22:21 | 56.15364 | 61.16427 | 16460 ft | 356 kts | 340° |
| 2026-05-07 22:21 | 56.17687 | 61.14961 | 16006 ft | 353 kts | 340° |
| 2026-05-07 22:21 | 56.19987 | 61.13509 | 15553 ft | 351 kts | 340° |
| 2026-05-07 22:21 | 56.22276 | 61.12061 | 15096 ft | 348 kts | 340° |
| 2026-05-07 22:22 | 56.24524 | 61.10639 | 14656 ft | 346 kts | 340° |
| 2026-05-07 22:22 | 56.26797 | 61.09199 | 14208 ft | 344 kts | 340° |
| 2026-05-07 22:22 | 56.29049 | 61.07772 | 13767 ft | 342 kts | 339° |
| 2026-05-07 22:22 | 56.31258 | 61.06368 | 13329 ft | 340 kts | 339° |
| 2026-05-07 22:23 | 56.33483 | 61.04950 | 12878 ft | 338 kts | 339° |
| 2026-05-07 22:23 | 56.35671 | 61.03545 | 12434 ft | 336 kts | 338° |
| 2026-05-07 22:23 | 56.37696 | 61.01518 | 11966 ft | 332 kts | 319° |
| 2026-05-07 22:23 | 56.39208 | 60.98409 | 11530 ft | 328 kts | 302° |
| 2026-05-07 22:24 | 56.40352 | 60.94923 | 11097 ft | 325 kts | 300° |
| 2026-05-07 22:24 | 56.41473 | 60.91399 | 10660 ft | 324 kts | 300° |
| 2026-05-07 22:24 | 56.42586 | 60.87911 | 10322 ft | 318 kts | 300° |
| 2026-05-07 22:24 | 56.43661 | 60.84564 | 10187 ft | 297 kts | 300° |
| 2026-05-07 22:25 | 56.44665 | 60.81445 | 10062 ft | 277 kts | 300° |
| 2026-05-07 22:25 | 56.45611 | 60.78507 | 9948 ft | 271 kts | 300° |
| 2026-05-07 22:25 | 56.46562 | 60.75552 | 9596 ft | 272 kts | 300° |
| 2026-05-07 22:25 | 56.47507 | 60.72614 | 9239 ft | 272 kts | 298° |
| 2026-05-07 22:26 | 56.48214 | 60.69473 | 8889 ft | 270 kts | 283° |
| 2026-05-07 22:26 | 56.48424 | 60.66119 | 8574 ft | 268 kts | 271° |
| 2026-05-07 22:26 | 56.48411 | 60.62771 | 8253 ft | 266 kts | 269° |
| 2026-05-07 22:26 | 56.48373 | 60.59443 | 7925 ft | 265 kts | 269° |
| 2026-05-07 22:27 | 56.48339 | 60.56131 | 7588 ft | 264 kts | 269° |
| 2026-05-07 22:27 | 56.48309 | 60.52822 | 7257 ft | 263 kts | 269° |
| 2026-05-07 22:27 | 56.48436 | 60.49588 | 6915 ft | 263 kts | 287° |
| 2026-05-07 22:27 | 56.49365 | 60.46786 | 6568 ft | 264 kts | 316° |
| 2026-05-07 22:28 | 56.50925 | 60.45101 | 6207 ft | 265 kts | 341° |
| 2026-05-07 22:28 | 56.52688 | 60.44158 | 5895 ft | 264 kts | 344° |
| 2026-05-07 22:28 | 56.54448 | 60.43227 | 5581 ft | 263 kts | 344° |
| 2026-05-07 22:28 | 56.56198 | 60.42285 | 5275 ft | 261 kts | 344° |
| 2026-05-07 22:29 | 56.57911 | 60.41349 | 4975 ft | 260 kts | 344° |
| 2026-05-07 22:29 | 56.59634 | 60.40398 | 4675 ft | 259 kts | 344° |
| 2026-05-07 22:29 | 56.61352 | 60.39447 | 4379 ft | 258 kts | 344° |
| 2026-05-07 22:29 | 56.63062 | 60.38497 | 4094 ft | 256 kts | 345° |
| 2026-05-07 22:30 | 56.64720 | 60.37573 | 4050 ft | 243 kts | 345° |
| 2026-05-07 22:30 | 56.66287 | 60.36698 | 4039 ft | 229 kts | 345° |
| 2026-05-07 22:30 | 56.67770 | 60.35873 | 3988 ft | 219 kts | 346° |
| 2026-05-07 22:30 | 56.69216 | 60.35521 | 3873 ft | 205 kts | 18° |
| 2026-05-07 22:31 | 56.70374 | 60.36823 | 3799 ft | 198 kts | 53° |
| 2026-05-07 22:31 | 56.71230 | 60.38797 | 3718 ft | 198 kts | 54° |
| 2026-05-07 22:31 | 56.72099 | 60.40731 | 3606 ft | 197 kts | 53° |
| 2026-05-07 22:31 | 56.72975 | 60.42616 | 3471 ft | 196 kts | 53° |
| 2026-05-07 22:32 | 56.73869 | 60.44512 | 3152 ft | 199 kts | 52° |
| 2026-05-07 22:32 | 56.74768 | 60.46406 | 2898 ft | 197 kts | 52° |
| 2026-05-07 22:32 | 56.75510 | 60.48378 | 2679 ft | 179 kts | 75° |
| 2026-05-07 22:32 | 56.75546 | 60.50448 | 2622 ft | 152 kts | 97° |
| 2026-05-07 22:33 | 56.75404 | 60.52265 | 2617 ft | 142 kts | 99° |
| 2026-05-07 22:33 | 56.75273 | 60.54037 | 2641 ft | 142 kts | 98° |
| 2026-05-07 22:33 | 56.75165 | 60.55811 | 2665 ft | 141 kts | 97° |
| 2026-05-07 22:33 | 56.75074 | 60.57590 | 2693 ft | 141 kts | 96° |
| 2026-05-07 22:34 | 56.74994 | 60.59376 | 2713 ft | 142 kts | 96° |
| 2026-05-07 22:34 | 56.74917 | 60.61177 | 2608 ft | 141 kts | 95° |
| 2026-05-07 22:34 | 56.74845 | 60.62923 | 2413 ft | 138 kts | 95° |
| 2026-05-07 22:34 | 56.74773 | 60.64664 | 2213 ft | 137 kts | 95° |
| 2026-05-07 22:35 | 56.74703 | 60.66376 | 2027 ft | 136 kts | 94° |
| 2026-05-07 22:35 | 56.74632 | 60.68090 | 1842 ft | 136 kts | 94° |
| 2026-05-07 22:35 | 56.74560 | 60.69799 | 1664 ft | 135 kts | 94° |
| 2026-05-07 22:35 | 56.74486 | 60.71497 | 1478 ft | 135 kts | 94° |
| 2026-05-07 22:36 | 56.74417 | 60.73182 | 1277 ft | 134 kts | 92° |
| 2026-05-07 22:36 | 56.74351 | 60.74879 | 1081 ft | 134 kts | 93° |
| 2026-05-07 22:36 | 56.74284 | 60.76553 | 919 ft | 133 kts | 92° |
| 2026-05-07 22:36 | 56.74219 | 60.78230 | 809 ft | 133 kts | 92° |
| 2026-05-07 22:37 | 56.74160 | 60.79840 | 777 ft | 112 kts | 95° |
| 2026-05-07 22:37 | 56.74112 | 60.80954 | 777 ft | 66 kts | 94° |
| 2026-05-07 22:37 | 56.74081 | 60.81677 | 777 ft | 39 kts | 93° |
| 2026-05-07 22:37 | 56.74070 | 60.82028 | 777 ft | 23 kts | 93° |
| 2026-05-07 22:38 | 56.74133 | 60.82161 | 777 ft | 15 kts | 3° |
| 2026-05-07 22:38 | 56.74242 | 60.82169 | 777 ft | 15 kts | 2° |
| 2026-05-07 22:38 | 56.74354 | 60.82185 | 777 ft | 16 kts | 6° |
| 2026-05-07 22:38 | 56.74466 | 60.82199 | 777 ft | 16 kts | 2° |
| 2026-05-07 22:39 | 56.74580 | 60.82199 | 777 ft | 16 kts | 359° |
| 2026-05-07 22:39 | 56.74696 | 60.82196 | 777 ft | 16 kts | 359° |
| 2026-05-07 22:39 | 56.74784 | 60.82104 | 777 ft | 16 kts | 296° |
| 2026-05-07 22:39 | 56.74836 | 60.81921 | 777 ft | 16 kts | 298° |
| 2026-05-07 22:40 | 56.74863 | 60.81704 | 777 ft | 18 kts | 271° |
| 2026-05-07 22:40 | 56.74863 | 60.81461 | 777 ft | 20 kts | 271° |
| 2026-05-07 22:40 | 56.74864 | 60.81194 | 777 ft | 21 kts | 270° |
| 2026-05-07 22:40 | 56.74850 | 60.80916 | 777 ft | 22 kts | 270° |
| 2026-05-07 22:41 | 56.74852 | 60.80637 | 777 ft | 21 kts | 271° |
| 2026-05-07 22:41 | 56.74870 | 60.80503 | 777 ft | 9 kts | 329° |
| 2026-05-07 22:41 | 56.74910 | 60.80495 | 777 ft | 5 kts | 1° |
| 2026-05-07 22:41 | 56.74931 | 60.80494 | 777 ft | 0 kts | 359° |
| 2026-05-07 22:44 | 56.74930 | 60.80494 | 777 ft | 0 kts | 359° |
| 2026-05-07 22:45 | 56.74927 | 60.80495 | 777 ft | 0 kts | 0° |
| 2026-05-07 22:45 | 56.74926 | 60.80495 | 777 ft | 0 kts | 1° |
| 2026-05-07 22:47 | 56.74925 | 60.80495 | 777 ft | 1 kts | 1° |
| 2026-05-07 22:48 | 56.74923 | 60.80494 | 777 ft | 0 kts | 1° |